sensor_id;sensor_type;location;lat;lon;timestamp;pressure;altitude;pressure_sealevel;temperature;humidity
59831;BME280;45711;50.108;13.712;2022-09-17T00:01:41;97027.50;;;9.03;78.19
59831;BME280;45711;50.108;13.712;2022-09-17T00:04:08;97032.41;;;9.15;77.05
59831;BME280;45711;50.108;13.712;2022-09-17T00:06:35;97018.63;;;9.08;77.94
59831;BME280;45711;50.108;13.712;2022-09-17T00:09:01;97018.34;;;9.10;77.50
59831;BME280;45711;50.108;13.712;2022-09-17T00:11:28;97028.66;;;9.16;77.52
59831;BME280;45711;50.108;13.712;2022-09-17T00:13:57;97029.97;;;9.19;77.73
59831;BME280;45711;50.108;13.712;2022-09-17T00:16:26;97018.97;;;9.20;77.78
59831;BME280;45711;50.108;13.712;2022-09-17T00:18:53;97023.59;;;8.96;78.05
59831;BME280;45711;50.108;13.712;2022-09-17T00:21:19;97029.59;;;8.88;78.48
59831;BME280;45711;50.108;13.712;2022-09-17T00:23:45;97032.78;;;8.90;79.06
59831;BME280;45711;50.108;13.712;2022-09-17T00:26:11;97029.09;;;8.86;78.82
59831;BME280;45711;50.108;13.712;2022-09-17T00:28:36;97029.09;;;8.86;78.32
59831;BME280;45711;50.108;13.712;2022-09-17T00:31:07;97019.78;;;8.83;78.67
59831;BME280;45711;50.108;13.712;2022-09-17T00:33:33;97017.72;;;8.80;78.53
59831;BME280;45711;50.108;13.712;2022-09-17T00:35:59;97021.72;;;8.96;78.88
59831;BME280;45711;50.108;13.712;2022-09-17T00:38:25;97029.81;;;9.10;76.90
59831;BME280;45711;50.108;13.712;2022-09-17T00:40:51;97021.94;;;9.00;77.47
59831;BME280;45711;50.108;13.712;2022-09-17T00:43:36;97021.53;;;9.12;77.74
59831;BME280;45711;50.108;13.712;2022-09-17T00:46:02;97022.88;;;9.09;77.80
59831;BME280;45711;50.108;13.712;2022-09-17T00:48:30;97021.25;;;8.75;79.34
59831;BME280;45711;50.108;13.712;2022-09-17T00:50:57;97029.25;;;8.75;78.83
59831;BME280;45711;50.108;13.712;2022-09-17T00:53:24;97017.47;;;8.57;79.83
59831;BME280;45711;50.108;13.712;2022-09-17T00:55:54;97025.13;;;8.64;79.30
59831;BME280;45711;50.108;13.712;2022-09-17T00:58:23;97024.75;;;8.52;80.10
59831;BME280;45711;50.108;13.712;2022-09-17T01:00:50;97029.91;;;8.43;79.98
59831;BME280;45711;50.108;13.712;2022-09-17T01:03:15;97025.97;;;8.36;80.64
59831;BME280;45711;50.108;13.712;2022-09-17T01:05:46;97033.75;;;8.56;79.69
59831;BME280;45711;50.108;13.712;2022-09-17T01:08:20;97025.19;;;8.59;79.34
59831;BME280;45711;50.108;13.712;2022-09-17T01:11:07;97030.22;;;8.61;79.42
59831;BME280;45711;50.108;13.712;2022-09-17T01:13:45;97028.59;;;8.65;79.07
59831;BME280;45711;50.108;13.712;2022-09-17T01:16:19;97031.25;;;8.65;79.40
59831;BME280;45711;50.108;13.712;2022-09-17T01:18:59;97033.56;;;8.71;79.32
59831;BME280;45711;50.108;13.712;2022-09-17T01:21:52;97032.00;;;8.89;83.53
59831;BME280;45711;50.108;13.712;2022-09-17T01:24:47;97031.16;;;9.26;82.84
59831;BME280;45711;50.108;13.712;2022-09-17T01:30:51;97022.59;;;8.73;78.45
59831;BME280;45711;50.108;13.712;2022-09-17T01:33:29;97023.03;;;8.61;78.93
59831;BME280;45711;50.108;13.712;2022-09-17T01:36:05;97021.00;;;8.53;79.28
59831;BME280;45711;50.108;13.712;2022-09-17T01:38:41;97024.19;;;8.55;78.78
59831;BME280;45711;50.108;13.712;2022-09-17T01:41:14;97026.13;;;8.87;78.89
59831;BME280;45711;50.108;13.712;2022-09-17T01:43:47;97021.13;;;9.18;79.50
59831;BME280;45711;50.108;13.712;2022-09-17T01:46:20;97030.13;;;8.90;77.62
59831;BME280;45711;50.108;13.712;2022-09-17T01:48:50;97027.00;;;8.64;78.33
59831;BME280;45711;50.108;13.712;2022-09-17T01:51:19;97026.78;;;8.36;79.19
59831;BME280;45711;50.108;13.712;2022-09-17T01:53:51;97031.00;;;8.42;80.10
59831;BME280;45711;50.108;13.712;2022-09-17T01:56:21;97031.91;;;8.32;79.82
59831;BME280;45711;50.108;13.712;2022-09-17T01:58:55;97030.09;;;8.28;79.62
59831;BME280;45711;50.108;13.712;2022-09-17T02:01:24;97030.34;;;8.26;80.01
59831;BME280;45711;50.108;13.712;2022-09-17T02:03:59;97042.66;;;8.22;79.58
59831;BME280;45711;50.108;13.712;2022-09-17T02:06:29;97038.56;;;8.30;79.61
59831;BME280;45711;50.108;13.712;2022-09-17T02:09:00;97040.03;;;9.22;78.29
59831;BME280;45711;50.108;13.712;2022-09-17T02:11:39;97041.38;;;10.31;75.80
59831;BME280;45711;50.108;13.712;2022-09-17T02:14:10;97035.34;;;11.03;73.44
59831;BME280;45711;50.108;13.712;2022-09-17T02:16:42;97042.47;;;11.07;73.63
59831;BME280;45711;50.108;13.712;2022-09-17T02:19:13;97045.00;;;12.02;76.39
59831;BME280;45711;50.108;13.712;2022-09-17T02:21:46;97043.94;;;12.12;70.05
59831;BME280;45711;50.108;13.712;2022-09-17T02:24:16;97041.03;;;12.40;77.80
59831;BME280;45711;50.108;13.712;2022-09-17T02:26:48;97026.00;;;12.30;75.38
59831;BME280;45711;50.108;13.712;2022-09-17T02:29:19;97031.22;;;12.35;77.59
59831;BME280;45711;50.108;13.712;2022-09-17T02:31:48;97024.25;;;12.25;74.53
59831;BME280;45711;50.108;13.712;2022-09-17T02:34:14;97028.69;;;13.04;72.77
59831;BME280;45711;50.108;13.712;2022-09-17T02:36:40;97021.91;;;13.16;75.94
59831;BME280;45711;50.108;13.712;2022-09-17T02:39:08;97026.00;;;13.39;76.59
59831;BME280;45711;50.108;13.712;2022-09-17T02:41:45;97015.41;;;12.91;74.21
59831;BME280;45711;50.108;13.712;2022-09-17T02:44:22;97016.69;;;13.02;69.91
59831;BME280;45711;50.108;13.712;2022-09-17T02:46:58;97024.28;;;13.35;75.77
59831;BME280;45711;50.108;13.712;2022-09-17T02:49:41;97021.09;;;13.06;71.71
59831;BME280;45711;50.108;13.712;2022-09-17T02:52:15;97014.16;;;13.23;74.79
59831;BME280;45711;50.108;13.712;2022-09-17T02:54:50;97008.31;;;13.29;76.32
59831;BME280;45711;50.108;13.712;2022-09-17T02:57:26;96998.69;;;13.37;67.09
59831;BME280;45711;50.108;13.712;2022-09-17T02:59:58;96992.03;;;13.00;75.83
59831;BME280;45711;50.108;13.712;2022-09-17T03:02:32;96980.13;;;11.92;75.84
59831;BME280;45711;50.108;13.712;2022-09-17T03:05:02;96984.88;;;12.52;73.01
59831;BME280;45711;50.108;13.712;2022-09-17T03:07:28;96991.16;;;12.30;68.43
59831;BME280;45711;50.108;13.712;2022-09-17T03:09:54;96990.34;;;11.36;70.11
59831;BME280;45711;50.108;13.712;2022-09-17T03:12:19;96987.56;;;11.41;68.73
59831;BME280;45711;50.108;13.712;2022-09-17T03:14:45;96995.06;;;12.15;80.86
59831;BME280;45711;50.108;13.712;2022-09-17T03:17:11;96995.13;;;12.01;79.21
59831;BME280;45711;50.108;13.712;2022-09-17T03:19:38;96994.19;;;12.46;77.97
59831;BME280;45711;50.108;13.712;2022-09-17T03:22:03;97000.06;;;12.65;72.61
59831;BME280;45711;50.108;13.712;2022-09-17T03:24:29;96985.13;;;12.16;76.15
59831;BME280;45711;50.108;13.712;2022-09-17T03:26:55;96988.22;;;12.83;76.59
59831;BME280;45711;50.108;13.712;2022-09-17T03:29:21;96982.63;;;11.88;68.55
59831;BME280;45711;50.108;13.712;2022-09-17T03:31:47;96993.25;;;12.50;78.20
59831;BME280;45711;50.108;13.712;2022-09-17T03:34:12;96989.28;;;11.68;72.02
59831;BME280;45711;50.108;13.712;2022-09-17T03:36:39;96988.97;;;10.94;74.09
59831;BME280;45711;50.108;13.712;2022-09-17T03:39:05;96995.25;;;11.12;72.30
59831;BME280;45711;50.108;13.712;2022-09-17T03:41:30;96996.50;;;10.92;77.20
59831;BME280;45711;50.108;13.712;2022-09-17T03:43:56;96998.44;;;11.67;69.40
59831;BME280;45711;50.108;13.712;2022-09-17T03:46:22;97002.84;;;11.41;75.77
59831;BME280;45711;50.108;13.712;2022-09-17T03:48:47;96996.69;;;11.18;80.73
59831;BME280;45711;50.108;13.712;2022-09-17T03:51:13;96988.84;;;11.21;75.99
59831;BME280;45711;50.108;13.712;2022-09-17T03:53:39;96989.28;;;10.15;73.93
59831;BME280;45711;50.108;13.712;2022-09-17T03:56:05;96994.13;;;10.13;74.23
59831;BME280;45711;50.108;13.712;2022-09-17T03:58:32;96989.50;;;10.32;74.43
59831;BME280;45711;50.108;13.712;2022-09-17T04:00:58;96986.91;;;11.13;77.65
59831;BME280;45711;50.108;13.712;2022-09-17T04:03:24;96982.69;;;11.21;75.56
59831;BME280;45711;50.108;13.712;2022-09-17T04:05:50;96980.47;;;11.68;77.79
59831;BME280;45711;50.108;13.712;2022-09-17T04:08:16;96978.91;;;11.44;69.39
59831;BME280;45711;50.108;13.712;2022-09-17T04:10:44;96976.00;;;11.32;80.06
59831;BME280;45711;50.108;13.712;2022-09-17T04:13:10;96976.50;;;10.12;74.26
59831;BME280;45711;50.108;13.712;2022-09-17T04:15:35;96975.00;;;9.78;81.60
59831;BME280;45711;50.108;13.712;2022-09-17T04:18:01;96990.16;;;10.88;75.56
59831;BME280;45711;50.108;13.712;2022-09-17T04:20:26;96980.78;;;10.26;73.09
59831;BME280;45711;50.108;13.712;2022-09-17T04:22:52;96989.16;;;10.97;78.73
59831;BME280;45711;50.108;13.712;2022-09-17T04:25:18;96976.69;;;10.79;74.30
59831;BME280;45711;50.108;13.712;2022-09-17T04:27:45;96988.25;;;11.02;74.12
59831;BME280;45711;50.108;13.712;2022-09-17T04:30:12;96973.72;;;11.48;74.32
59831;BME280;45711;50.108;13.712;2022-09-17T04:32:38;96975.31;;;10.81;75.34
59831;BME280;45711;50.108;13.712;2022-09-17T04:35:04;96973.25;;;11.01;77.67
59831;BME280;45711;50.108;13.712;2022-09-17T04:37:29;96968.16;;;11.13;73.21
59831;BME280;45711;50.108;13.712;2022-09-17T04:39:55;96959.56;;;10.30;75.06
59831;BME280;45711;50.108;13.712;2022-09-17T04:42:20;96954.63;;;10.73;73.76
59831;BME280;45711;50.108;13.712;2022-09-17T04:44:47;96959.78;;;10.20;74.48
59831;BME280;45711;50.108;13.712;2022-09-17T04:47:13;96962.56;;;10.15;74.83
59831;BME280;45711;50.108;13.712;2022-09-17T04:49:39;96957.84;;;9.51;77.13
59831;BME280;45711;50.108;13.712;2022-09-17T04:52:04;96953.53;;;9.69;77.94
59831;BME280;45711;50.108;13.712;2022-09-17T04:54:30;96955.28;;;9.60;77.12
59831;BME280;45711;50.108;13.712;2022-09-17T04:56:55;96960.47;;;9.84;76.64
59831;BME280;45711;50.108;13.712;2022-09-17T04:59:21;96959.84;;;9.73;76.55
59831;BME280;45711;50.108;13.712;2022-09-17T05:01:48;96956.28;;;10.05;76.58
59831;BME280;45711;50.108;13.712;2022-09-17T05:04:14;96950.88;;;10.24;75.72
59831;BME280;45711;50.108;13.712;2022-09-17T05:06:40;96955.50;;;10.46;81.93
59831;BME280;45711;50.108;13.712;2022-09-17T05:09:06;96949.25;;;10.51;75.10
59831;BME280;45711;50.108;13.712;2022-09-17T05:11:31;96955.88;;;10.90;79.33
59831;BME280;45711;50.108;13.712;2022-09-17T05:13:57;96964.91;;;10.16;75.63
59831;BME280;45711;50.108;13.712;2022-09-17T05:16:22;96960.28;;;9.80;76.93
59831;BME280;45711;50.108;13.712;2022-09-17T05:18:49;96965.28;;;10.51;75.70
59831;BME280;45711;50.108;13.712;2022-09-17T05:21:16;96959.47;;;10.21;77.39
59831;BME280;45711;50.108;13.712;2022-09-17T05:23:41;96964.72;;;9.71;77.33
59831;BME280;45711;50.108;13.712;2022-09-17T05:26:07;96963.41;;;9.69;77.56
59831;BME280;45711;50.108;13.712;2022-09-17T05:28:32;96966.19;;;9.91;78.64
59831;BME280;45711;50.108;13.712;2022-09-17T05:30:58;96962.06;;;9.85;77.54
59831;BME280;45711;50.108;13.712;2022-09-17T05:33:24;96967.41;;;9.99;77.71
59831;BME280;45711;50.108;13.712;2022-09-17T05:35:51;96961.75;;;10.42;77.76
59831;BME280;45711;50.108;13.712;2022-09-17T05:38:17;96963.00;;;10.58;81.56
59831;BME280;45711;50.108;13.712;2022-09-17T05:40:43;96955.84;;;10.53;74.83
59831;BME280;45711;50.108;13.712;2022-09-17T05:43:09;96960.47;;;10.25;76.78
59831;BME280;45711;50.108;13.712;2022-09-17T05:45:35;96958.59;;;10.26;76.13
59831;BME280;45711;50.108;13.712;2022-09-17T05:48:03;96956.97;;;10.89;82.47
59831;BME280;45711;50.108;13.712;2022-09-17T05:50:29;96952.53;;;11.60;79.57
59831;BME280;45711;50.108;13.712;2022-09-17T05:52:56;96953.34;;;11.38;74.55
59831;BME280;45711;50.108;13.712;2022-09-17T05:55:22;96949.81;;;11.82;78.76
59831;BME280;45711;50.108;13.712;2022-09-17T05:57:48;96956.38;;;11.76;75.43
59831;BME280;45711;50.108;13.712;2022-09-17T06:00:14;96956.09;;;12.26;72.10
59831;BME280;45711;50.108;13.712;2022-09-17T06:02:40;96957.06;;;12.30;79.24
59831;BME280;45711;50.108;13.712;2022-09-17T06:05:06;96943.56;;;11.96;71.20
59831;BME280;45711;50.108;13.712;2022-09-17T06:07:34;96950.97;;;11.14;72.43
59831;BME280;45711;50.108;13.712;2022-09-17T06:10:01;96949.88;;;11.38;72.68
59831;BME280;45711;50.108;13.712;2022-09-17T06:12:27;96948.56;;;11.57;77.27
59831;BME280;45711;50.108;13.712;2022-09-17T06:14:52;96945.63;;;11.99;71.65
59831;BME280;45711;50.108;13.712;2022-09-17T06:17:18;96953.78;;;11.85;69.43
59831;BME280;45711;50.108;13.712;2022-09-17T06:19:43;96954.66;;;12.20;73.13
59831;BME280;45711;50.108;13.712;2022-09-17T06:22:09;96965.66;;;12.67;73.42
59831;BME280;45711;50.108;13.712;2022-09-17T06:24:34;96963.34;;;12.17;69.47
59831;BME280;45711;50.108;13.712;2022-09-17T06:27:01;96970.00;;;12.28;74.57
59831;BME280;45711;50.108;13.712;2022-09-17T06:29:27;96972.00;;;12.14;73.61
59831;BME280;45711;50.108;13.712;2022-09-17T06:31:52;96978.53;;;11.91;74.30
59831;BME280;45711;50.108;13.712;2022-09-17T06:34:18;97002.22;;;11.89;74.58
59831;BME280;45711;50.108;13.712;2022-09-17T06:36:44;97001.78;;;12.04;69.98
59831;BME280;45711;50.108;13.712;2022-09-17T06:39:09;97010.34;;;11.83;78.62
59831;BME280;45711;50.108;13.712;2022-09-17T06:41:36;97017.41;;;12.02;68.26
59831;BME280;45711;50.108;13.712;2022-09-17T06:44:03;97022.13;;;12.05;70.03
59831;BME280;45711;50.108;13.712;2022-09-17T06:46:28;97031.34;;;11.59;74.08
59831;BME280;45711;50.108;13.712;2022-09-17T06:48:54;97042.22;;;11.85;69.05
59831;BME280;45711;50.108;13.712;2022-09-17T06:51:19;97050.94;;;11.91;69.69
59831;BME280;45711;50.108;13.712;2022-09-17T06:53:46;97064.09;;;12.41;76.65
59831;BME280;45711;50.108;13.712;2022-09-17T06:56:16;97057.59;;;12.90;72.45
59831;BME280;45711;50.108;13.712;2022-09-17T06:58:42;97061.81;;;12.82;69.28
59831;BME280;45711;50.108;13.712;2022-09-17T07:01:10;97065.44;;;12.69;68.22
59831;BME280;45711;50.108;13.712;2022-09-17T07:03:36;97064.69;;;12.29;70.11
59831;BME280;45711;50.108;13.712;2022-09-17T07:06:03;97057.47;;;12.47;74.27
59831;BME280;45711;50.108;13.712;2022-09-17T07:08:30;97057.09;;;12.31;68.18
59831;BME280;45711;50.108;13.712;2022-09-17T07:10:56;97061.13;;;12.11;72.02
59831;BME280;45711;50.108;13.712;2022-09-17T07:13:22;97060.00;;;12.43;70.14
59831;BME280;45711;50.108;13.712;2022-09-17T07:15:51;97061.81;;;12.25;71.09
59831;BME280;45711;50.108;13.712;2022-09-17T07:18:19;97062.63;;;12.35;74.65
59831;BME280;45711;50.108;13.712;2022-09-17T07:20:51;97065.75;;;12.68;74.39
59831;BME280;45711;50.108;13.712;2022-09-17T07:23:18;97067.72;;;13.11;73.13
59831;BME280;45711;50.108;13.712;2022-09-17T07:25:43;97081.91;;;12.85;74.61
59831;BME280;45711;50.108;13.712;2022-09-17T07:28:09;97073.78;;;12.59;67.55
59831;BME280;45711;50.108;13.712;2022-09-17T07:30:34;97076.97;;;12.78;73.86
59831;BME280;45711;50.108;13.712;2022-09-17T07:33:00;97073.59;;;12.47;68.52
59831;BME280;45711;50.108;13.712;2022-09-17T07:35:27;97076.19;;;12.78;72.71
59831;BME280;45711;50.108;13.712;2022-09-17T07:37:52;97070.88;;;13.21;70.33
59831;BME280;45711;50.108;13.712;2022-09-17T07:40:18;97065.53;;;13.39;73.61
59831;BME280;45711;50.108;13.712;2022-09-17T07:42:44;97074.31;;;12.87;71.26
59831;BME280;45711;50.108;13.712;2022-09-17T07:45:09;97071.34;;;12.40;75.84
59831;BME280;45711;50.108;13.712;2022-09-17T07:47:39;97071.44;;;12.26;74.05
59831;BME280;45711;50.108;13.712;2022-09-17T07:50:06;97067.72;;;12.45;73.42
59831;BME280;45711;50.108;13.712;2022-09-17T07:52:33;97071.63;;;12.30;74.82
59831;BME280;45711;50.108;13.712;2022-09-17T07:54:58;97066.66;;;11.61;76.32
59831;BME280;45711;50.108;13.712;2022-09-17T07:57:24;97065.91;;;11.24;78.99
59831;BME280;45711;50.108;13.712;2022-09-17T07:59:49;97064.63;;;10.86;79.22
59831;BME280;45711;50.108;13.712;2022-09-17T08:02:15;97069.75;;;11.32;79.53
59831;BME280;45711;50.108;13.712;2022-09-17T08:04:41;97067.19;;;10.91;79.60
59831;BME280;45711;50.108;13.712;2022-09-17T08:07:10;97075.00;;;10.87;80.51
59831;BME280;45711;50.108;13.712;2022-09-17T08:09:37;97069.28;;;10.66;80.41
59831;BME280;45711;50.108;13.712;2022-09-17T08:12:03;97063.22;;;10.88;80.05
59831;BME280;45711;50.108;13.712;2022-09-17T08:14:28;97062.53;;;10.82;81.45
59831;BME280;45711;50.108;13.712;2022-09-17T08:16:54;97061.00;;;10.54;83.34
59831;BME280;45711;50.108;13.712;2022-09-17T08:19:19;97064.25;;;11.15;81.71
59831;BME280;45711;50.108;13.712;2022-09-17T08:21:45;97066.16;;;11.81;77.95
59831;BME280;45711;50.108;13.712;2022-09-17T08:24:11;97063.84;;;11.44;80.83
59831;BME280;45711;50.108;13.712;2022-09-17T08:26:38;97057.19;;;11.19;80.85
59831;BME280;45711;50.108;13.712;2022-09-17T08:29:05;97058.41;;;11.35;79.04
59831;BME280;45711;50.108;13.712;2022-09-17T08:31:31;97059.84;;;11.32;82.42
59831;BME280;45711;50.108;13.712;2022-09-17T08:33:58;97049.59;;;11.12;80.71
59831;BME280;45711;50.108;13.712;2022-09-17T08:36:24;97060.56;;;11.47;80.25
59831;BME280;45711;50.108;13.712;2022-09-17T08:38:54;97063.22;;;11.69;79.53
59831;BME280;45711;50.108;13.712;2022-09-17T08:41:24;97059.47;;;11.25;80.06
59831;BME280;45711;50.108;13.712;2022-09-17T08:44:05;97066.78;;;11.33;79.88
59831;BME280;45711;50.108;13.712;2022-09-17T08:46:40;97085.28;;;11.44;80.18
59831;BME280;45711;50.108;13.712;2022-09-17T08:49:12;97090.28;;;11.59;78.92
59831;BME280;45711;50.108;13.712;2022-09-17T08:51:48;97084.72;;;11.78;77.89
59831;BME280;45711;50.108;13.712;2022-09-17T08:54:22;97077.59;;;11.28;81.31
59831;BME280;45711;50.108;13.712;2022-09-17T08:57:03;97087.78;;;12.07;77.61
59831;BME280;45711;50.108;13.712;2022-09-17T08:59:38;97080.94;;;11.79;79.12
59831;BME280;45711;50.108;13.712;2022-09-17T09:02:18;97078.91;;;11.98;79.96
59831;BME280;45711;50.108;13.712;2022-09-17T09:04:57;97078.38;;;12.27;78.59
59831;BME280;45711;50.108;13.712;2022-09-17T09:07:28;97087.81;;;12.16;78.99
59831;BME280;45711;50.108;13.712;2022-09-17T09:10:04;97086.00;;;12.03;78.73
59831;BME280;45711;50.108;13.712;2022-09-17T09:12:34;97097.53;;;11.81;79.99
59831;BME280;45711;50.108;13.712;2022-09-17T09:15:05;97100.09;;;12.48;78.55
59831;BME280;45711;50.108;13.712;2022-09-17T09:17:36;97087.66;;;12.61;77.45
59831;BME280;45711;50.108;13.712;2022-09-17T09:20:03;97091.56;;;13.12;77.73
59831;BME280;45711;50.108;13.712;2022-09-17T09:22:39;97098.50;;;13.04;74.96
59831;BME280;45711;50.108;13.712;2022-09-17T09:25:17;97095.38;;;13.20;74.54
59831;BME280;45711;50.108;13.712;2022-09-17T09:27:55;97094.47;;;13.59;76.79
59831;BME280;45711;50.108;13.712;2022-09-17T09:30:28;97102.72;;;14.18;74.18
59831;BME280;45711;50.108;13.712;2022-09-17T09:32:59;97101.88;;;14.35;73.86
59831;BME280;45711;50.108;13.712;2022-09-17T09:35:29;97102.75;;;14.09;71.24
59831;BME280;45711;50.108;13.712;2022-09-17T09:37:59;97090.41;;;14.08;72.06
59831;BME280;45711;50.108;13.712;2022-09-17T09:40:32;97090.13;;;13.93;74.01
59831;BME280;45711;50.108;13.712;2022-09-17T09:43:06;97089.44;;;14.22;73.95
59831;BME280;45711;50.108;13.712;2022-09-17T09:45:48;97097.72;;;13.99;73.18
59831;BME280;45711;50.108;13.712;2022-09-17T09:48:22;97091.94;;;13.71;72.06
59831;BME280;45711;50.108;13.712;2022-09-17T09:51:09;97097.84;;;14.20;73.41
59831;BME280;45711;50.108;13.712;2022-09-17T09:53:52;97100.78;;;14.36;73.71
59831;BME280;45711;50.108;13.712;2022-09-17T09:56:36;97094.25;;;13.90;73.91
59831;BME280;45711;50.108;13.712;2022-09-17T09:59:10;97093.53;;;13.55;74.90
59831;BME280;45711;50.108;13.712;2022-09-17T10:01:39;97101.34;;;12.91;77.73
59831;BME280;45711;50.108;13.712;2022-09-17T10:04:14;97100.41;;;13.04;77.81
59831;BME280;45711;50.108;13.712;2022-09-17T10:06:40;97103.00;;;12.69;80.36
59831;BME280;45711;50.108;13.712;2022-09-17T10:09:12;97103.91;;;12.16;79.02
59831;BME280;45711;50.108;13.712;2022-09-17T10:11:38;97111.31;;;11.88;81.70
59831;BME280;45711;50.108;13.712;2022-09-17T10:14:20;97111.63;;;11.87;83.67
59831;BME280;45711;50.108;13.712;2022-09-17T10:16:49;97107.09;;;11.73;83.93
59831;BME280;45711;50.108;13.712;2022-09-17T10:19:34;97109.16;;;11.76;83.65
59831;BME280;45711;50.108;13.712;2022-09-17T10:22:17;97105.28;;;11.82;79.83
59831;BME280;45711;50.108;13.712;2022-09-17T10:24:44;97112.63;;;11.77;81.67
59831;BME280;45711;50.108;13.712;2022-09-17T10:27:13;97112.47;;;11.96;81.75
59831;BME280;45711;50.108;13.712;2022-09-17T10:29:41;97116.28;;;12.35;79.76
59831;BME280;45711;50.108;13.712;2022-09-17T10:32:14;97118.75;;;12.53;80.72
59831;BME280;45711;50.108;13.712;2022-09-17T10:34:40;97112.03;;;12.73;79.71
59831;BME280;45711;50.108;13.712;2022-09-17T10:37:31;97109.38;;;12.82;78.57
59831;BME280;45711;50.108;13.712;2022-09-17T10:39:57;97104.50;;;12.44;80.25
59831;BME280;45711;50.108;13.712;2022-09-17T10:42:23;97089.25;;;12.62;80.96
59831;BME280;45711;50.108;13.712;2022-09-17T10:44:53;97089.81;;;12.42;78.32
59831;BME280;45711;50.108;13.712;2022-09-17T10:47:21;97097.25;;;12.93;78.65
59831;BME280;45711;50.108;13.712;2022-09-17T10:49:52;97090.41;;;12.78;80.26
59831;BME280;45711;50.108;13.712;2022-09-17T10:52:23;97098.41;;;12.61;81.90
59831;BME280;45711;50.108;13.712;2022-09-17T10:55:16;97099.34;;;12.17;83.22
59831;BME280;45711;50.108;13.712;2022-09-17T10:58:02;97104.31;;;12.32;82.85
59831;BME280;45711;50.108;13.712;2022-09-17T11:00:37;97103.78;;;12.61;82.26
59831;BME280;45711;50.108;13.712;2022-09-17T11:06:16;97117.28;;;12.07;83.37
59831;BME280;45711;50.108;13.712;2022-09-17T11:08:53;97082.38;;;11.99;77.82
59831;BME280;45711;50.108;13.712;2022-09-17T11:11:31;97082.03;;;12.00;78.83
59831;BME280;45711;50.108;13.712;2022-09-17T11:14:09;97090.22;;;12.26;81.91
59831;BME280;45711;50.108;13.712;2022-09-17T11:16:41;97088.25;;;12.49;81.19
59831;BME280;45711;50.108;13.712;2022-09-17T11:19:22;97083.47;;;12.77;80.10
59831;BME280;45711;50.108;13.712;2022-09-17T11:21:55;97089.16;;;12.85;80.70
59831;BME280;45711;50.108;13.712;2022-09-17T11:27:36;97095.06;;;13.21;81.50
59831;BME280;45711;50.108;13.712;2022-09-17T11:30:15;97098.56;;;13.39;79.26
59831;BME280;45711;50.108;13.712;2022-09-17T11:33:06;97094.44;;;13.85;79.28
59831;BME280;45711;50.108;13.712;2022-09-17T11:35:40;97090.63;;;13.95;76.83
59831;BME280;45711;50.108;13.712;2022-09-17T11:38:12;97094.81;;;14.22;76.76
59831;BME280;45711;50.108;13.712;2022-09-17T11:40:43;97078.88;;;14.55;76.96
59831;BME280;45711;50.108;13.712;2022-09-17T11:43:20;97075.94;;;14.30;77.85
59831;BME280;45711;50.108;13.712;2022-09-17T11:45:55;97067.69;;;14.74;75.50
59831;BME280;45711;50.108;13.712;2022-09-17T11:48:27;97064.91;;;14.62;77.19
59831;BME280;45711;50.108;13.712;2022-09-17T11:50:58;97054.81;;;14.79;77.86
59831;BME280;45711;50.108;13.712;2022-09-17T11:53:30;97057.34;;;14.85;76.91
59831;BME280;45711;50.108;13.712;2022-09-17T11:55:59;97057.34;;;14.08;74.58
59831;BME280;45711;50.108;13.712;2022-09-17T11:58:32;97054.00;;;14.20;75.21
59831;BME280;45711;50.108;13.712;2022-09-17T12:01:01;97058.81;;;14.35;71.39
59831;BME280;45711;50.108;13.712;2022-09-17T12:03:31;97060.34;;;14.45;73.00
59831;BME280;45711;50.108;13.712;2022-09-17T12:06:05;97054.03;;;14.41;69.81
59831;BME280;45711;50.108;13.712;2022-09-17T12:08:38;97052.03;;;14.38;71.90
59831;BME280;45711;50.108;13.712;2022-09-17T12:11:10;97053.97;;;14.28;68.42
59831;BME280;45711;50.108;13.712;2022-09-17T12:13:41;97053.06;;;14.45;69.85
59831;BME280;45711;50.108;13.712;2022-09-17T12:16:15;97059.13;;;14.42;70.22
59831;BME280;45711;50.108;13.712;2022-09-17T12:19:03;97056.91;;;14.36;73.52
59831;BME280;45711;50.108;13.712;2022-09-17T12:21:38;97053.41;;;13.97;69.10
59831;BME280;45711;50.108;13.712;2022-09-17T12:24:11;97053.28;;;13.93;68.39
59831;BME280;45711;50.108;13.712;2022-09-17T12:27:02;97058.16;;;14.00;67.33
59831;BME280;45711;50.108;13.712;2022-09-17T12:29:47;97049.97;;;13.88;65.53
59831;BME280;45711;50.108;13.712;2022-09-17T12:32:40;97041.94;;;14.26;68.51
59831;BME280;45711;50.108;13.712;2022-09-17T12:35:21;97037.66;;;14.25;69.84
59831;BME280;45711;50.108;13.712;2022-09-17T12:38:08;97040.06;;;14.56;71.06
59831;BME280;45711;50.108;13.712;2022-09-17T12:40:38;97042.78;;;14.56;66.75
59831;BME280;45711;50.108;13.712;2022-09-17T12:43:22;97048.56;;;14.28;65.42
59831;BME280;45711;50.108;13.712;2022-09-17T12:46:05;97052.28;;;14.15;71.56
59831;BME280;45711;50.108;13.712;2022-09-17T12:49:03;97059.00;;;14.30;71.92
59831;BME280;45711;50.108;13.712;2022-09-17T12:51:48;97062.19;;;13.68;69.26
59831;BME280;45711;50.108;13.712;2022-09-17T12:57:16;97074.38;;;13.48;69.71
59831;BME280;45711;50.108;13.712;2022-09-17T12:59:49;97080.38;;;13.62;68.77
59831;BME280;45711;50.108;13.712;2022-09-17T13:02:20;97077.19;;;13.17;68.85
59831;BME280;45711;50.108;13.712;2022-09-17T13:05:04;97066.94;;;13.27;70.66
59831;BME280;45711;50.108;13.712;2022-09-17T13:07:56;97076.44;;;13.33;71.24
59831;BME280;45711;50.108;13.712;2022-09-17T13:10:55;97060.91;;;13.22;68.59
59831;BME280;45711;50.108;13.712;2022-09-17T13:13:31;97062.66;;;13.18;72.86
59831;BME280;45711;50.108;13.712;2022-09-17T13:16:06;97066.59;;;13.03;69.60
59831;BME280;45711;50.108;13.712;2022-09-17T13:18:38;97063.94;;;13.12;68.76
59831;BME280;45711;50.108;13.712;2022-09-17T13:21:09;97061.28;;;13.46;69.49
59831;BME280;45711;50.108;13.712;2022-09-17T13:23:41;97045.44;;;13.45;67.71